sensor_id;sensor_type;location;lat;lon;timestamp;temperature;humidity
18101;DHT22;9177;49.156;8.142;2023-04-30T00:01:25;19.90;99.50
18101;DHT22;9177;49.156;8.142;2023-04-30T00:03:53;19.90;99.50
18101;DHT22;9177;49.156;8.142;2023-04-30T00:06:20;19.90;99.90
18101;DHT22;9177;49.156;8.142;2023-04-30T00:08:47;19.90;99.50
18101;DHT22;9177;49.156;8.142;2023-04-30T00:11:14;19.90;99.50
18101;DHT22;9177;49.156;8.142;2023-04-30T00:13:41;19.90;99.40
18101;DHT22;9177;49.156;8.142;2023-04-30T00:16:08;19.90;99.40
18101;DHT22;9177;49.156;8.142;2023-04-30T00:18:36;19.90;99.50
18101;DHT22;9177;49.156;8.142;2023-04-30T00:21:04;19.90;99.50
18101;DHT22;9177;49.156;8.142;2023-04-30T00:23:31;19.90;99.40
18101;DHT22;9177;49.156;8.142;2023-04-30T00:25:58;19.90;99.40
18101;DHT22;9177;49.156;8.142;2023-04-30T00:28:25;19.90;99.40
18101;DHT22;9177;49.156;8.142;2023-04-30T00:30:52;19.90;99.40
18101;DHT22;9177;49.156;8.142;2023-04-30T00:33:18;19.90;99.40
18101;DHT22;9177;49.156;8.142;2023-04-30T00:35:45;19.90;99.40
18101;DHT22;9177;49.156;8.142;2023-04-30T00:38:14;19.90;99.40
18101;DHT22;9177;49.156;8.142;2023-04-30T00:40:40;19.90;99.40
18101;DHT22;9177;49.156;8.142;2023-04-30T00:43:07;19.80;99.30
18101;DHT22;9177;49.156;8.142;2023-04-30T00:45:34;19.80;99.70
18101;DHT22;9177;49.156;8.142;2023-04-30T00:48:02;19.90;99.40
18101;DHT22;9177;49.156;8.142;2023-04-30T00:50:29;19.80;99.30
18101;DHT22;9177;49.156;8.142;2023-04-30T00:52:56;19.80;99.30
18101;DHT22;9177;49.156;8.142;2023-04-30T00:55:25;19.80;99.30
18101;DHT22;9177;49.156;8.142;2023-04-30T00:57:52;19.80;99.30
18101;DHT22;9177;49.156;8.142;2023-04-30T01:00:19;19.80;99.30
18101;DHT22;9177;49.156;8.142;2023-04-30T01:02:47;19.80;99.30
18101;DHT22;9177;49.156;8.142;2023-04-30T01:05:14;19.80;99.30
18101;DHT22;9177;49.156;8.142;2023-04-30T01:07:41;19.80;99.30
18101;DHT22;9177;49.156;8.142;2023-04-30T01:10:11;19.80;99.30
18101;DHT22;9177;49.156;8.142;2023-04-30T01:12:44;19.80;99.30
18101;DHT22;9177;49.156;8.142;2023-04-30T01:15:20;19.80;99.30
18101;DHT22;9177;49.156;8.142;2023-04-30T01:17:53;19.80;99.30
18101;DHT22;9177;49.156;8.142;2023-04-30T01:20:25;19.80;99.20
18101;DHT22;9177;49.156;8.142;2023-04-30T01:22:56;19.80;99.20
18101;DHT22;9177;49.156;8.142;2023-04-30T01:25:41;19.80;99.20
18101;DHT22;9177;49.156;8.142;2023-04-30T01:28:14;19.80;99.20
18101;DHT22;9177;49.156;8.142;2023-04-30T01:30:42;19.80;99.20
18101;DHT22;9177;49.156;8.142;2023-04-30T01:33:10;19.80;99.20
18101;DHT22;9177;49.156;8.142;2023-04-30T01:35:55;19.80;99.20
18101;DHT22;9177;49.156;8.142;2023-04-30T01:38:36;19.80;99.20
18101;DHT22;9177;49.156;8.142;2023-04-30T01:41:12;19.80;99.20
18101;DHT22;9177;49.156;8.142;2023-04-30T01:43:49;19.80;99.20
18101;DHT22;9177;49.156;8.142;2023-04-30T01:46:27;19.80;99.20
18101;DHT22;9177;49.156;8.142;2023-04-30T01:49:02;19.70;99.20
18101;DHT22;9177;49.156;8.142;2023-04-30T01:51:38;19.80;99.20
18101;DHT22;9177;49.156;8.142;2023-04-30T01:54:11;19.70;99.10
18101;DHT22;9177;49.156;8.142;2023-04-30T01:56:47;19.70;99.10
18101;DHT22;9177;49.156;8.142;2023-04-30T01:59:18;19.70;99.10
18101;DHT22;9177;49.156;8.142;2023-04-30T02:01:45;19.70;99.10
18101;DHT22;9177;49.156;8.142;2023-04-30T02:04:12;19.70;99.10
18101;DHT22;9177;49.156;8.142;2023-04-30T02:06:39;19.70;99.10
18101;DHT22;9177;49.156;8.142;2023-04-30T02:09:06;19.70;99.10
18101;DHT22;9177;49.156;8.142;2023-04-30T02:11:35;19.70;99.10
18101;DHT22;9177;49.156;8.142;2023-04-30T02:14:01;19.70;99.10
18101;DHT22;9177;49.156;8.142;2023-04-30T02:16:29;19.70;99.10
18101;DHT22;9177;49.156;8.142;2023-04-30T02:18:56;19.70;99.10
18101;DHT22;9177;49.156;8.142;2023-04-30T02:21:23;19.70;99.10
18101;DHT22;9177;49.156;8.142;2023-04-30T02:23:51;19.70;99.10
18101;DHT22;9177;49.156;8.142;2023-04-30T02:26:18;19.70;99.10
18101;DHT22;9177;49.156;8.142;2023-04-30T02:28:45;19.70;99.20
18101;DHT22;9177;49.156;8.142;2023-04-30T02:31:12;19.70;99.10
18101;DHT22;9177;49.156;8.142;2023-04-30T02:33:40;19.70;99.10
18101;DHT22;9177;49.156;8.142;2023-04-30T02:36:07;19.70;99.10
18101;DHT22;9177;49.156;8.142;2023-04-30T02:38:34;19.70;99.10
18101;DHT22;9177;49.156;8.142;2023-04-30T02:41:01;19.70;99.10
18101;DHT22;9177;49.156;8.142;2023-04-30T02:43:28;19.70;99.10
18101;DHT22;9177;49.156;8.142;2023-04-30T02:45:56;19.70;99.10
18101;DHT22;9177;49.156;8.142;2023-04-30T02:48:23;19.70;99.10
18101;DHT22;9177;49.156;8.142;2023-04-30T02:50:51;19.70;99.10
18101;DHT22;9177;49.156;8.142;2023-04-30T02:53:18;19.70;99.10
18101;DHT22;9177;49.156;8.142;2023-04-30T02:55:45;19.70;99.10
18101;DHT22;9177;49.156;8.142;2023-04-30T02:58:12;19.70;99.10
18101;DHT22;9177;49.156;8.142;2023-04-30T03:00:39;19.70;99.10
18101;DHT22;9177;49.156;8.142;2023-04-30T03:03:06;19.70;99.00
18101;DHT22;9177;49.156;8.142;2023-04-30T03:05:32;19.70;99.00
18101;DHT22;9177;49.156;8.142;2023-04-30T03:08:00;19.70;99.00
18101;DHT22;9177;49.156;8.142;2023-04-30T03:10:27;19.70;99.00
18101;DHT22;9177;49.156;8.142;2023-04-30T03:12:54;19.70;99.00
18101;DHT22;9177;49.156;8.142;2023-04-30T03:15:21;19.70;99.00
18101;DHT22;9177;49.156;8.142;2023-04-30T03:17:48;19.70;99.00
18101;DHT22;9177;49.156;8.142;2023-04-30T03:20:15;19.70;99.00
18101;DHT22;9177;49.156;8.142;2023-04-30T03:22:41;19.70;99.00
18101;DHT22;9177;49.156;8.142;2023-04-30T03:25:10;19.70;99.00
18101;DHT22;9177;49.156;8.142;2023-04-30T03:27:37;19.70;99.00
18101;DHT22;9177;49.156;8.142;2023-04-30T03:30:05;19.70;99.00
18101;DHT22;9177;49.156;8.142;2023-04-30T03:32:32;19.70;99.00
18101;DHT22;9177;49.156;8.142;2023-04-30T03:34:59;19.70;99.00
18101;DHT22;9177;49.156;8.142;2023-04-30T03:37:25;19.70;99.00
18101;DHT22;9177;49.156;8.142;2023-04-30T03:39:52;19.70;99.00
18101;DHT22;9177;49.156;8.142;2023-04-30T03:42:20;19.70;99.00
18101;DHT22;9177;49.156;8.142;2023-04-30T03:44:50;19.70;99.00
18101;DHT22;9177;49.156;8.142;2023-04-30T03:47:17;19.70;98.90
18101;DHT22;9177;49.156;8.142;2023-04-30T03:49:44;19.70;98.90
18101;DHT22;9177;49.156;8.142;2023-04-30T03:52:12;19.70;99.00
18101;DHT22;9177;49.156;8.142;2023-04-30T03:54:39;19.70;98.90
18101;DHT22;9177;49.156;8.142;2023-04-30T03:57:06;19.60;98.90
18101;DHT22;9177;49.156;8.142;2023-04-30T03:59:36;19.70;98.90
18101;DHT22;9177;49.156;8.142;2023-04-30T04:02:03;19.60;98.90
18101;DHT22;9177;49.156;8.142;2023-04-30T04:04:31;19.60;98.90
18101;DHT22;9177;49.156;8.142;2023-04-30T04:06:58;19.60;98.90
18101;DHT22;9177;49.156;8.142;2023-04-30T04:09:25;19.60;98.90
18101;DHT22;9177;49.156;8.142;2023-04-30T04:11:52;19.60;98.90
18101;DHT22;9177;49.156;8.142;2023-04-30T04:14:19;19.60;98.90
18101;DHT22;9177;49.156;8.142;2023-04-30T04:16:47;19.60;98.90
18101;DHT22;9177;49.156;8.142;2023-04-30T04:19:14;19.60;98.90
18101;DHT22;9177;49.156;8.142;2023-04-30T04:21:41;19.60;98.90
18101;DHT22;9177;49.156;8.142;2023-04-30T04:24:08;19.60;98.90
18101;DHT22;9177;49.156;8.142;2023-04-30T04:26:35;19.60;99.30
18101;DHT22;9177;49.156;8.142;2023-04-30T04:29:03;19.60;98.90
18101;DHT22;9177;49.156;8.142;2023-04-30T04:31:30;19.60;98.90
18101;DHT22;9177;49.156;8.142;2023-04-30T04:34:01;19.60;98.90
18101;DHT22;9177;49.156;8.142;2023-04-30T04:36:29;19.60;98.90
18101;DHT22;9177;49.156;8.142;2023-04-30T04:38:56;19.60;98.90
18101;DHT22;9177;49.156;8.142;2023-04-30T04:41:26;19.60;98.90
18101;DHT22;9177;49.156;8.142;2023-04-30T04:43:53;19.60;98.90
18101;DHT22;9177;49.156;8.142;2023-04-30T04:46:20;19.60;98.90
18101;DHT22;9177;49.156;8.142;2023-04-30T04:48:47;19.60;98.90
18101;DHT22;9177;49.156;8.142;2023-04-30T04:51:16;19.60;98.90
18101;DHT22;9177;49.156;8.142;2023-04-30T04:53:42;19.60;98.90
18101;DHT22;9177;49.156;8.142;2023-04-30T04:56:09;19.60;98.90
18101;DHT22;9177;49.156;8.142;2023-04-30T04:58:36;19.60;98.90
18101;DHT22;9177;49.156;8.142;2023-04-30T05:01:04;19.60;98.90
18101;DHT22;9177;49.156;8.142;2023-04-30T05:03:32;19.60;98.90
18101;DHT22;9177;49.156;8.142;2023-04-30T05:06:01;19.60;98.90
18101;DHT22;9177;49.156;8.142;2023-04-30T05:08:30;19.60;98.90
18101;DHT22;9177;49.156;8.142;2023-04-30T05:10:56;19.60;98.90
18101;DHT22;9177;49.156;8.142;2023-04-30T05:13:23;19.60;98.90
18101;DHT22;9177;49.156;8.142;2023-04-30T05:15:52;19.60;98.90
18101;DHT22;9177;49.156;8.142;2023-04-30T05:18:20;19.60;98.90
18101;DHT22;9177;49.156;8.142;2023-04-30T05:20:46;19.60;98.90
18101;DHT22;9177;49.156;8.142;2023-04-30T05:23:13;19.60;98.90
18101;DHT22;9177;49.156;8.142;2023-04-30T05:25:42;19.60;98.90
18101;DHT22;9177;49.156;8.142;2023-04-30T05:28:08;19.60;98.90
18101;DHT22;9177;49.156;8.142;2023-04-30T05:30:35;19.60;98.90
18101;DHT22;9177;49.156;8.142;2023-04-30T05:33:02;19.60;99.20
18101;DHT22;9177;49.156;8.142;2023-04-30T05:35:29;19.60;98.90
18101;DHT22;9177;49.156;8.142;2023-04-30T05:37:56;19.60;98.90
18101;DHT22;9177;49.156;8.142;2023-04-30T05:40:23;19.60;98.90
18101;DHT22;9177;49.156;8.142;2023-04-30T05:42:51;19.60;98.90
18101;DHT22;9177;49.156;8.142;2023-04-30T05:45:18;19.60;98.90
18101;DHT22;9177;49.156;8.142;2023-04-30T05:47:45;19.60;98.80
18101;DHT22;9177;49.156;8.142;2023-04-30T05:50:12;19.60;98.80
18101;DHT22;9177;49.156;8.142;2023-04-30T05:52:39;19.60;98.80
18101;DHT22;9177;49.156;8.142;2023-04-30T05:55:07;19.60;98.80
18101;DHT22;9177;49.156;8.142;2023-04-30T05:57:34;19.60;98.80
18101;DHT22;9177;49.156;8.142;2023-04-30T06:00:03;19.60;98.80
18101;DHT22;9177;49.156;8.142;2023-04-30T06:02:31;19.60;98.80
18101;DHT22;9177;49.156;8.142;2023-04-30T06:04:58;19.60;98.80
18101;DHT22;9177;49.156;8.142;2023-04-30T06:07:26;19.60;98.80
18101;DHT22;9177;49.156;8.142;2023-04-30T06:09:53;19.60;98.80
18101;DHT22;9177;49.156;8.142;2023-04-30T06:12:20;19.60;98.80
18101;DHT22;9177;49.156;8.142;2023-04-30T06:14:47;19.60;98.80
18101;DHT22;9177;49.156;8.142;2023-04-30T06:17:15;19.60;98.80
18101;DHT22;9177;49.156;8.142;2023-04-30T06:19:42;19.60;98.80
18101;DHT22;9177;49.156;8.142;2023-04-30T06:22:09;19.60;98.80
18101;DHT22;9177;49.156;8.142;2023-04-30T06:24:36;19.60;98.80
18101;DHT22;9177;49.156;8.142;2023-04-30T06:27:03;19.60;98.80
18101;DHT22;9177;49.156;8.142;2023-04-30T06:29:30;19.60;98.80
18101;DHT22;9177;49.156;8.142;2023-04-30T06:31:57;19.60;98.80
18101;DHT22;9177;49.156;8.142;2023-04-30T06:34:25;19.60;98.80
18101;DHT22;9177;49.156;8.142;2023-04-30T06:36:52;19.60;98.80
18101;DHT22;9177;49.156;8.142;2023-04-30T06:39:19;19.60;98.80
18101;DHT22;9177;49.156;8.142;2023-04-30T06:41:46;19.60;98.80
18101;DHT22;9177;49.156;8.142;2023-04-30T06:44:12;19.60;98.80
18101;DHT22;9177;49.156;8.142;2023-04-30T06:46:40;19.60;98.80
18101;DHT22;9177;49.156;8.142;2023-04-30T06:49:07;19.60;98.80
18101;DHT22;9177;49.156;8.142;2023-04-30T06:51:36;19.60;98.70
18101;DHT22;9177;49.156;8.142;2023-04-30T06:54:03;19.60;98.70
18101;DHT22;9177;49.156;8.142;2023-04-30T06:56:30;19.60;98.80
18101;DHT22;9177;49.156;8.142;2023-04-30T06:58:57;19.70;98.80
18101;DHT22;9177;49.156;8.142;2023-04-30T07:01:24;19.70;98.70
18101;DHT22;9177;49.156;8.142;2023-04-30T07:03:51;19.70;98.70
18101;DHT22;9177;49.156;8.142;2023-04-30T07:06:19;19.70;98.70
18101;DHT22;9177;49.156;8.142;2023-04-30T07:08:47;19.70;98.70
18101;DHT22;9177;49.156;8.142;2023-04-30T07:11:14;19.70;98.70
18101;DHT22;9177;49.156;8.142;2023-04-30T07:13:41;19.70;98.80
18101;DHT22;9177;49.156;8.142;2023-04-30T07:16:08;19.70;98.90
18101;DHT22;9177;49.156;8.142;2023-04-30T07:18:35;19.70;98.90
18101;DHT22;9177;49.156;8.142;2023-04-30T07:21:04;19.70;98.80
18101;DHT22;9177;49.156;8.142;2023-04-30T07:23:30;19.70;98.80
18101;DHT22;9177;49.156;8.142;2023-04-30T07:25:59;19.70;98.70
18101;DHT22;9177;49.156;8.142;2023-04-30T07:28:26;19.70;98.70
18101;DHT22;9177;49.156;8.142;2023-04-30T07:30:53;19.70;98.70
18101;DHT22;9177;49.156;8.142;2023-04-30T07:33:20;19.70;98.70
18101;DHT22;9177;49.156;8.142;2023-04-30T07:35:47;19.80;98.60
18101;DHT22;9177;49.156;8.142;2023-04-30T07:38:14;19.80;98.60
18101;DHT22;9177;49.156;8.142;2023-04-30T07:40:43;19.80;98.50
18101;DHT22;9177;49.156;8.142;2023-04-30T07:43:11;19.80;98.50
18101;DHT22;9177;49.156;8.142;2023-04-30T07:45:38;19.90;98.50
18101;DHT22;9177;49.156;8.142;2023-04-30T07:48:06;19.90;98.40
18101;DHT22;9177;49.156;8.142;2023-04-30T07:50:33;19.90;98.40
18101;DHT22;9177;49.156;8.142;2023-04-30T07:53:00;19.90;98.40
18101;DHT22;9177;49.156;8.142;2023-04-30T07:55:27;19.90;98.40
18101;DHT22;9177;49.156;8.142;2023-04-30T07:57:57;20.00;98.70
18101;DHT22;9177;49.156;8.142;2023-04-30T08:00:31;20.00;98.30
18101;DHT22;9177;49.156;8.142;2023-04-30T08:02:58;20.00;98.30
18101;DHT22;9177;49.156;8.142;2023-04-30T08:05:26;20.10;98.30
18101;DHT22;9177;49.156;8.142;2023-04-30T08:07:54;20.10;98.20
18101;DHT22;9177;49.156;8.142;2023-04-30T08:10:21;20.10;98.20
18101;DHT22;9177;49.156;8.142;2023-04-30T08:12:47;20.10;98.10
18101;DHT22;9177;49.156;8.142;2023-04-30T08:15:14;20.20;98.20
18101;DHT22;9177;49.156;8.142;2023-04-30T08:17:43;20.10;98.10
18101;DHT22;9177;49.156;8.142;2023-04-30T08:20:10;20.20;98.20
18101;DHT22;9177;49.156;8.142;2023-04-30T08:22:37;20.20;98.10
18101;DHT22;9177;49.156;8.142;2023-04-30T08:25:04;20.20;98.20
18101;DHT22;9177;49.156;8.142;2023-04-30T08:27:31;20.20;98.20
18101;DHT22;9177;49.156;8.142;2023-04-30T08:29:58;20.20;98.10
18101;DHT22;9177;49.156;8.142;2023-04-30T08:32:26;20.20;98.10
18101;DHT22;9177;49.156;8.142;2023-04-30T08:34:54;20.20;98.10
18101;DHT22;9177;49.156;8.142;2023-04-30T08:37:22;20.30;98.20
18101;DHT22;9177;49.156;8.142;2023-04-30T08:39:48;20.20;98.10
18101;DHT22;9177;49.156;8.142;2023-04-30T08:42:16;20.20;98.10
18101;DHT22;9177;49.156;8.142;2023-04-30T08:44:44;20.30;98.20
18101;DHT22;9177;49.156;8.142;2023-04-30T08:47:12;20.30;98.20
18101;DHT22;9177;49.156;8.142;2023-04-30T08:49:40;20.20;98.10
18101;DHT22;9177;49.156;8.142;2023-04-30T08:52:09;20.30;98.20
18101;DHT22;9177;49.156;8.142;2023-04-30T08:54:36;20.30;98.20
18101;DHT22;9177;49.156;8.142;2023-04-30T08:57:03;20.30;98.20
18101;DHT22;9177;49.156;8.142;2023-04-30T08:59:31;20.20;98.20
18101;DHT22;9177;49.156;8.142;2023-04-30T09:01:59;20.30;98.20
18101;DHT22;9177;49.156;8.142;2023-04-30T09:04:26;20.30;98.20
18101;DHT22;9177;49.156;8.142;2023-04-30T09:06:53;20.20;98.20
18101;DHT22;9177;49.156;8.142;2023-04-30T09:09:27;20.30;98.30
18101;DHT22;9177;49.156;8.142;2023-04-30T09:12:10;20.30;98.30
18101;DHT22;9177;49.156;8.142;2023-04-30T09:14:38;20.20;98.20
18101;DHT22;9177;49.156;8.142;2023-04-30T09:17:06;20.20;98.30
18101;DHT22;9177;49.156;8.142;2023-04-30T09:19:34;20.20;98.30
18101;DHT22;9177;49.156;8.142;2023-04-30T09:22:17;20.20;98.30
18101;DHT22;9177;49.156;8.142;2023-04-30T09:24:46;20.20;98.30
18101;DHT22;9177;49.156;8.142;2023-04-30T09:27:18;20.30;98.40
18101;DHT22;9177;49.156;8.142;2023-04-30T09:29:45;20.50;98.00
18101;DHT22;9177;49.156;8.142;2023-04-30T09:32:13;20.70;97.50
18101;DHT22;9177;49.156;8.142;2023-04-30T09:34:40;20.90;97.10
18101;DHT22;9177;49.156;8.142;2023-04-30T09:37:08;21.10;96.70
18101;DHT22;9177;49.156;8.142;2023-04-30T09:39:47;21.20;96.20
18101;DHT22;9177;49.156;8.142;2023-04-30T09:42:16;21.50;95.70
18101;DHT22;9177;49.156;8.142;2023-04-30T09:44:44;21.70;95.30
18101;DHT22;9177;49.156;8.142;2023-04-30T09:47:11;21.80;94.90
18101;DHT22;9177;49.156;8.142;2023-04-30T09:49:40;21.90;94.60
18101;DHT22;9177;49.156;8.142;2023-04-30T09:52:08;22.00;94.30
18101;DHT22;9177;49.156;8.142;2023-04-30T09:54:35;22.10;94.10
18101;DHT22;9177;49.156;8.142;2023-04-30T09:57:04;22.10;93.90
18101;DHT22;9177;49.156;8.142;2023-04-30T09:59:35;22.10;93.80
18101;DHT22;9177;49.156;8.142;2023-04-30T10:02:05;22.00;93.70
18101;DHT22;9177;49.156;8.142;2023-04-30T10:04:34;22.00;93.60
18101;DHT22;9177;49.156;8.142;2023-04-30T10:07:04;21.80;93.60
18101;DHT22;9177;49.156;8.142;2023-04-30T10:09:38;21.80;93.70
18101;DHT22;9177;49.156;8.142;2023-04-30T10:12:12;21.70;93.70
18101;DHT22;9177;49.156;8.142;2023-04-30T10:14:44;21.60;93.70
18101;DHT22;9177;49.156;8.142;2023-04-30T10:17:15;21.50;93.70
18101;DHT22;9177;49.156;8.142;2023-04-30T10:19:45;21.40;93.70
18101;DHT22;9177;49.156;8.142;2023-04-30T10:22:13;21.40;93.70
18101;DHT22;9177;49.156;8.142;2023-04-30T10:24:41;21.30;93.70
18101;DHT22;9177;49.156;8.142;2023-04-30T10:27:10;21.30;93.70
18101;DHT22;9177;49.156;8.142;2023-04-30T10:29:37;21.30;93.90
18101;DHT22;9177;49.156;8.142;2023-04-30T10:32:05;21.20;93.80
18101;DHT22;9177;49.156;8.142;2023-04-30T10:34:40;21.10;93.90
18101;DHT22;9177;49.156;8.142;2023-04-30T10:37:17;21.10;93.90
18101;DHT22;9177;49.156;8.142;2023-04-30T10:39:47;21.10;94.10
18101;DHT22;9177;49.156;8.142;2023-04-30T10:42:16;21.10;94.10
18101;DHT22;9177;49.156;8.142;2023-04-30T10:44:43;21.00;94.20
18101;DHT22;9177;49.156;8.142;2023-04-30T10:47:10;21.00;94.30
18101;DHT22;9177;49.156;8.142;2023-04-30T10:49:37;21.00;94.30
18101;DHT22;9177;49.156;8.142;2023-04-30T10:52:10;21.00;94.30
18101;DHT22;9177;49.156;8.142;2023-04-30T10:54:37;21.00;94.40
18101;DHT22;9177;49.156;8.142;2023-04-30T10:57:16;21.10;94.40
18101;DHT22;9177;49.156;8.142;2023-04-30T10:59:51;21.30;94.20
18101;DHT22;9177;49.156;8.142;2023-04-30T11:02:18;21.40;93.90
18101;DHT22;9177;49.156;8.142;2023-04-30T11:05:08;21.50;93.70
18101;DHT22;9177;49.156;8.142;2023-04-30T11:07:36;21.60;93.50
18101;DHT22;9177;49.156;8.142;2023-04-30T11:10:06;21.70;93.40
18101;DHT22;9177;49.156;8.142;2023-04-30T11:12:40;21.60;93.40
18101;DHT22;9177;49.156;8.142;2023-04-30T11:15:12;21.70;93.40
18101;DHT22;9177;49.156;8.142;2023-04-30T11:17:42;21.70;93.30
18101;DHT22;9177;49.156;8.142;2023-04-30T11:20:12;21.70;93.20
18101;DHT22;9177;49.156;8.142;2023-04-30T11:22:39;21.70;93.00
18101;DHT22;9177;49.156;8.142;2023-04-30T11:25:08;21.70;93.10
18101;DHT22;9177;49.156;8.142;2023-04-30T11:27:38;21.70;93.00
18101;DHT22;9177;49.156;8.142;2023-04-30T11:30:10;21.70;93.00
18101;DHT22;9177;49.156;8.142;2023-04-30T11:32:38;21.80;93.00
18101;DHT22;9177;49.156;8.142;2023-04-30T11:35:06;21.80;92.90
18101;DHT22;9177;49.156;8.142;2023-04-30T11:37:34;21.80;92.80
18101;DHT22;9177;49.156;8.142;2023-04-30T11:40:04;21.80;92.80
18101;DHT22;9177;49.156;8.142;2023-04-30T11:42:32;21.80;92.80
18101;DHT22;9177;49.156;8.142;2023-04-30T11:45:09;21.90;92.90
18101;DHT22;9177;49.156;8.142;2023-04-30T11:47:44;21.80;92.80
18101;DHT22;9177;49.156;8.142;2023-04-30T11:50:13;21.90;92.70
18101;DHT22;9177;49.156;8.142;2023-04-30T11:52:40;21.90;92.70
18101;DHT22;9177;49.156;8.142;2023-04-30T11:55:12;21.90;92.70
18101;DHT22;9177;49.156;8.142;2023-04-30T11:57:41;21.90;92.60
18101;DHT22;9177;49.156;8.142;2023-04-30T12:00:15;21.90;92.60
18101;DHT22;9177;49.156;8.142;2023-04-30T12:02:44;21.90;92.70
18101;DHT22;9177;49.156;8.142;2023-04-30T12:05:16;22.10;92.60
18101;DHT22;9177;49.156;8.142;2023-04-30T12:07:47;22.10;92.40
18101;DHT22;9177;49.156;8.142;2023-04-30T12:10:14;22.00;92.50
18101;DHT22;9177;49.156;8.142;2023-04-30T12:12:42;22.10;92.30
18101;DHT22;9177;49.156;8.142;2023-04-30T12:15:16;22.10;92.30
18101;DHT22;9177;49.156;8.142;2023-04-30T12:17:43;22.10;92.40
18101;DHT22;9177;49.156;8.142;2023-04-30T12:20:12;22.00;92.60
18101;DHT22;9177;49.156;8.142;2023-04-30T12:22:39;21.90;92.60
18101;DHT22;9177;49.156;8.142;2023-04-30T12:25:08;21.90;92.70
18101;DHT22;9177;49.156;8.142;2023-04-30T12:27:38;21.80;92.80
18101;DHT22;9177;49.156;8.142;2023-04-30T12:30:06;21.70;92.90
18101;DHT22;9177;49.156;8.142;2023-04-30T12:32:43;21.70;92.90
18101;DHT22;9177;49.156;8.142;2023-04-30T12:35:13;21.60;92.80
18101;DHT22;9177;49.156;8.142;2023-04-30T12:37:42;21.50;93.00
18101;DHT22;9177;49.156;8.142;2023-04-30T12:40:11;21.50;93.10
18101;DHT22;9177;49.156;8.142;2023-04-30T12:42:39;21.50;93.30
18101;DHT22;9177;49.156;8.142;2023-04-30T12:45:07;21.40;93.20
18101;DHT22;9177;49.156;8.142;2023-04-30T12:47:37;21.40;93.30
18101;DHT22;9177;49.156;8.142;2023-04-30T12:50:09;21.30;93.40
18101;DHT22;9177;49.156;8.142;2023-04-30T12:52:37;21.30;93.40
18101;DHT22;9177;49.156;8.142;2023-04-30T12:55:14;21.20;93.50
18101;DHT22;9177;49.156;8.142;2023-04-30T12:57:41;21.20;93.50
18101;DHT22;9177;49.156;8.142;2023-04-30T13:00:29;21.20;93.60
18101;DHT22;9177;49.156;8.142;2023-04-30T13:03:08;21.20;93.50
18101;DHT22;9177;49.156;8.142;2023-04-30T13:05:36;21.20;93.50
18101;DHT22;9177;49.156;8.142;2023-04-30T13:08:03;21.10;93.50
18101;DHT22;9177;49.156;8.142;2023-04-30T13:10:31;21.10;93.50
18101;DHT22;9177;49.156;8.142;2023-04-30T13:12:58;21.10;93.60
18101;DHT22;9177;49.156;8.142;2023-04-30T13:15:25;21.10;93.60
18101;DHT22;9177;49.156;8.142;2023-04-30T13:17:52;21.00;93.70
18101;DHT22;9177;49.156;8.142;2023-04-30T13:20:20;21.00;93.60
18101;DHT22;9177;49.156;8.142;2023-04-30T13:22:48;21.00;93.70
18101;DHT22;9177;49.156;8.142;2023-04-30T13:25:15;21.00;93.70
18101;DHT22;9177;49.156;8.142;2023-04-30T13:27:42;21.00;93.70
18101;DHT22;9177;49.156;8.142;2023-04-30T13:30:10;20.90;93.70
18101;DHT22;9177;49.156;8.142;2023-04-30T13:32:37;20.90;93.80
18101;DHT22;9177;49.156;8.142;2023-04-30T13:35:05;20.90;93.80
18101;DHT22;9177;49.156;8.142;2023-04-30T13:37:33;20.80;93.70
18101;DHT22;9177;49.156;8.142;2023-04-30T13:40:02;20.80;93.80
18101;DHT22;9177;49.156;8.142;2023-04-30T13:42:31;20.80;93.80
18101;DHT22;9177;49.156;8.142;2023-04-30T13:44:57;20.80;93.60
18101;DHT22;9177;49.156;8.142;2023-04-30T13:47:24;20.90;93.50
18101;DHT22;9177;49.156;8.142;2023-04-30T13:49:51;20.90;93.50
18101;DHT22;9177;49.156;8.142;2023-04-30T13:52:18;20.90;93.40
18101;DHT22;9177;49.156;8.142;2023-04-30T13:54:47;21.00;93.40
18101;DHT22;9177;49.156;8.142;2023-04-30T13:57:18;21.00;93.40
18101;DHT22;9177;49.156;8.142;2023-04-30T13:59:44;21.00;93.40
18101;DHT22;9177;49.156;8.142;2023-04-30T14:02:11;21.00;93.40
18101;DHT22;9177;49.156;8.142;2023-04-30T14:04:38;20.90;93.20
18101;DHT22;9177;49.156;8.142;2023-04-30T14:07:05;21.00;93.30
18101;DHT22;9177;49.156;8.142;2023-04-30T14:09:32;21.00;93.40
18101;DHT22;9177;49.156;8.142;2023-04-30T14:12:00;21.00;93.30
18101;DHT22;9177;49.156;8.142;2023-04-30T14:14:28;21.00;93.30
18101;DHT22;9177;49.156;8.142;2023-04-30T14:16:55;21.10;93.30
18101;DHT22;9177;49.156;8.142;2023-04-30T14:19:22;21.10;93.30
18101;DHT22;9177;49.156;8.142;2023-04-30T14:21:49;21.20;93.10
18101;DHT22;9177;49.156;8.142;2023-04-30T14:24:16;21.20;93.10
18101;DHT22;9177;49.156;8.142;2023-04-30T14:26:44;21.20;93.10
18101;DHT22;9177;49.156;8.142;2023-04-30T14:29:11;21.20;93.00
18101;DHT22;9177;49.156;8.142;2023-04-30T14:31:39;21.20;93.00
18101;DHT22;9177;49.156;8.142;2023-04-30T14:34:06;21.30;93.00
18101;DHT22;9177;49.156;8.142;2023-04-30T14:36:35;21.30;92.90
18101;DHT22;9177;49.156;8.142;2023-04-30T14:39:02;21.30;92.90
18101;DHT22;9177;49.156;8.142;2023-04-30T14:41:33;21.30;92.80
18101;DHT22;9177;49.156;8.142;2023-04-30T14:44:01;21.30;92.80
18101;DHT22;9177;49.156;8.142;2023-04-30T14:46:29;21.40;92.80
18101;DHT22;9177;49.156;8.142;2023-04-30T14:48:59;21.40;92.70
18101;DHT22;9177;49.156;8.142;2023-04-30T14:51:26;21.40;92.70
18101;DHT22;9177;49.156;8.142;2023-04-30T14:53:53;21.40;92.60
18101;DHT22;9177;49.156;8.142;2023-04-30T14:56:20;21.50;92.70
18101;DHT22;9177;49.156;8.142;2023-04-30T14:58:49;21.60;92.60
18101;DHT22;9177;49.156;8.142;2023-04-30T15:01:16;21.70;92.40
18101;DHT22;9177;49.156;8.142;2023-04-30T15:03:43;21.90;92.30
18101;DHT22;9177;49.156;8.142;2023-04-30T15:06:12;22.00;92.10
18101;DHT22;9177;49.156;8.142;2023-04-30T15:08:41;22.10;91.80
18101;DHT22;9177;49.156;8.142;2023-04-30T15:11:08;22.20;91.80
18101;DHT22;9177;49.156;8.142;2023-04-30T15:13:35;22.10;91.80
18101;DHT22;9177;49.156;8.142;2023-04-30T15:16:03;22.10;91.80
18101;DHT22;9177;49.156;8.142;2023-04-30T15:18:30;22.10;91.80
18101;DHT22;9177;49.156;8.142;2023-04-30T15:20:57;22.00;91.90
18101;DHT22;9177;49.156;8.142;2023-04-30T15:23:26;22.00;92.00
18101;DHT22;9177;49.156;8.142;2023-04-30T15:25:53;21.90;92.00
18101;DHT22;9177;49.156;8.142;2023-04-30T15:28:20;21.80;92.00
18101;DHT22;9177;49.156;8.142;2023-04-30T15:30:49;21.80;92.40
18101;DHT22;9177;49.156;8.142;2023-04-30T15:33:16;21.70;92.10
18101;DHT22;9177;49.156;8.142;2023-04-30T15:35:44;21.60;92.10
18101;DHT22;9177;49.156;8.142;2023-04-30T15:38:10;21.60;92.20
18101;DHT22;9177;49.156;8.142;2023-04-30T15:40:39;21.50;92.20
18101;DHT22;9177;49.156;8.142;2023-04-30T15:43:06;21.50;92.20
18101;DHT22;9177;49.156;8.142;2023-04-30T15:45:34;21.40;92.20
18101;DHT22;9177;49.156;8.142;2023-04-30T15:48:01;21.40;92.20
18101;DHT22;9177;49.156;8.142;2023-04-30T15:50:28;21.40;92.20
18101;DHT22;9177;49.156;8.142;2023-04-30T15:52:55;21.40;92.30